OSDI/DAM METAR and TAF weather

Enter ICAO airport designator
Station Type Date Time Source
OSDI METAR 2021/06/24 06:00 UTC NOAA

OSDI 240600Z 18006KT CAVOK 24/13 Q1013


Station Type Date Time Source
OSDI Decoded METAR 2021/06/24 06:00 UTC NOAA

Damascus Int. Airport, Syria (OSDI) 33-25N 036-31E 609M
Jun 24, 2021 - 02:00 AM EDT / 2021.06.24 0600 UTC
Wind: from the S (180 degrees) at 7 MPH (6 KT):0
Visibility: greater than 7 mile(s):0
Temperature: 75 F (24 C)
Dew Point: 55 F (13 C)
Relative Humidity: 50%
Pressure (altimeter): 29.91 in. Hg (1013 hPa)
ob: OSDI 240600Z 18006KT CAVOK 24/13 Q1013
cycle: 6

Station Type Date Time Source
OSDI TAF 2021/06/23 18:57 UTC NOAA

TAF TAF OSDI 231700Z 2318/2424 22010KT CAVOK

Example: see airport list